createdAt,value
2018-12-27T00:01:21.541Z,97708.03
2018-12-27T00:03:52.952Z,97705.42
2018-12-27T00:06:24.339Z,97707.50
2018-12-27T00:08:55.913Z,97714.08
2018-12-27T00:11:27.322Z,97711.30
2018-12-27T00:13:58.769Z,97712.28
2018-12-27T00:16:30.187Z,97716.03
2018-12-27T00:19:01.636Z,97711.42
2018-12-27T00:21:33.035Z,97707.39
2018-12-27T00:24:04.634Z,97715.87
2018-12-27T00:26:36.094Z,97716.83
2018-12-27T00:29:07.684Z,97708.55
2018-12-27T00:31:39.342Z,97709.94
2018-12-27T00:34:10.895Z,97705.73
2018-12-27T00:36:42.704Z,97701.92
2018-12-27T00:39:14.324Z,97703.56
2018-12-27T00:41:46.056Z,97699.69
2018-12-27T00:44:17.765Z,97705.16
2018-12-27T00:46:49.414Z,97703.03
2018-12-27T00:49:21.132Z,97698.80
2018-12-27T00:51:52.620Z,97697.89
2018-12-27T00:54:24.222Z,97700.17
2018-12-27T00:56:55.774Z,97694.96
2018-12-27T00:59:27.355Z,97694.50
2018-12-27T01:01:59.085Z,97693.33
2018-12-27T01:04:30.726Z,97691.94
2018-12-27T01:07:02.352Z,97692.84
2018-12-27T01:09:34.012Z,97689.34
2018-12-27T01:12:05.688Z,97691.77
2018-12-27T01:14:37.407Z,97696.93
2018-12-27T01:17:08.895Z,97698.56
2018-12-27T01:19:40.502Z,97694.36
2018-12-27T01:22:12.234Z,97693.95
2018-12-27T01:24:43.745Z,97690.87
2018-12-27T01:27:17.971Z,97686.44
2018-12-27T01:29:49.635Z,97693.95
2018-12-27T01:32:21.222Z,97694.80
2018-12-27T01:34:53.012Z,97687.52
2018-12-27T01:37:24.597Z,97689.59
2018-12-27T01:39:56.394Z,97688.38
2018-12-27T01:42:27.984Z,97681.90
2018-12-27T01:44:59.822Z,97683.41
2018-12-27T01:47:31.342Z,97683.00
2018-12-27T01:50:02.942Z,97682.58
2018-12-27T01:52:34.639Z,97680.89
2018-12-27T01:55:06.535Z,97675.90
2018-12-27T01:57:38.072Z,97667.47
2018-12-27T02:00:09.553Z,97662.38
2018-12-27T02:02:41.154Z,97658.94
2018-12-27T02:05:12.639Z,97661.41
2018-12-27T02:07:44.294Z,97657.05
2018-12-27T02:10:15.755Z,97663.72
2018-12-27T02:12:47.456Z,97662.81
2018-12-27T02:15:18.916Z,97661.13
2018-12-27T02:17:50.523Z,97657.46
2018-12-27T02:20:22.115Z,97651.58
2018-12-27T02:22:53.733Z,97644.69
2018-12-27T02:25:25.329Z,97656.39
2018-12-27T02:27:57.004Z,97656.33
2018-12-27T02:30:28.706Z,97645.53
2018-12-27T02:33:00.226Z,97651.72
2018-12-27T02:35:31.876Z,97653.48
2018-12-27T02:38:03.414Z,97645.05
2018-12-27T02:40:34.856Z,97656.93
2018-12-27T02:43:07.547Z,97657.96
2018-12-27T02:45:39.150Z,97663.89
2018-12-27T02:48:10.666Z,97662.07
2018-12-27T02:50:42.084Z,97662.07
2018-12-27T02:53:13.682Z,97662.19
2018-12-27T02:55:45.145Z,97665.58
2018-12-27T02:58:16.846Z,97664.38
2018-12-27T03:00:48.416Z,97664.92
2018-12-27T03:03:20.070Z,97664.39
2018-12-27T03:05:51.614Z,97670.70
2018-12-27T03:08:22.996Z,97669.80
2018-12-27T03:10:54.566Z,97666.98
2018-12-27T03:13:26.097Z,97671.55
2018-12-27T03:15:57.616Z,97671.95
2018-12-27T03:18:29.142Z,97672.88
2018-12-27T03:21:00.826Z,97679.05
2018-12-27T03:23:32.369Z,97670.70
2018-12-27T03:26:03.912Z,97675.80
2018-12-27T03:28:35.396Z,97672.25
2018-12-27T03:31:07.047Z,97670.52
2018-12-27T03:33:38.687Z,97667.01
2018-12-27T03:36:10.445Z,97670.14
2018-12-27T03:38:41.973Z,97665.58
2018-12-27T03:41:13.385Z,97669.43
2018-12-27T03:43:44.879Z,97668.16
2018-12-27T03:46:16.465Z,97666.70
2018-12-27T03:48:48.333Z,97675.66
2018-12-27T03:51:19.989Z,97670.73
2018-12-27T03:53:51.758Z,97667.64
2018-12-27T03:56:23.358Z,97667.47
2018-12-27T03:58:55.000Z,97664.38
2018-12-27T04:01:26.387Z,97661.83
2018-12-27T04:04:01.516Z,97662.38
2018-12-27T04:06:31.194Z,97667.47
2018-12-27T04:09:02.892Z,97665.09
2018-12-27T04:11:34.458Z,97674.42
2018-12-27T04:14:06.057Z,97684.01
2018-12-27T04:16:37.666Z,97682.75
2018-12-27T04:19:09.171Z,97686.09
2018-12-27T04:21:40.560Z,97702.78
2018-12-27T04:24:12.366Z,97709.52
2018-12-27T04:26:43.847Z,97706.19
2018-12-27T04:29:15.359Z,97715.73
2018-12-27T04:31:47.659Z,97719.53
2018-12-27T04:34:19.670Z,97722.19
2018-12-27T04:36:54.315Z,97724.42
2018-12-27T04:39:25.739Z,97723.77
2018-12-27T04:41:57.150Z,97729.25
2018-12-27T04:44:28.778Z,97733.54
2018-12-27T04:47:00.116Z,97739.77
2018-12-27T04:49:33.779Z,97736.27
2018-12-27T04:52:05.375Z,97741.74
2018-12-27T04:54:36.776Z,97743.70
2018-12-27T04:57:08.307Z,97752.13
2018-12-27T04:59:39.764Z,97750.49
2018-12-27T05:02:11.220Z,97760.29
2018-12-27T05:04:42.586Z,97757.58
2018-12-27T05:07:14.130Z,97754.78
2018-12-27T05:09:45.585Z,97765.65
2018-12-27T05:12:17.676Z,97764.42
2018-12-27T05:14:49.215Z,97768.49
2018-12-27T05:17:20.948Z,97764.03
2018-12-27T05:19:52.421Z,97771.67
2018-12-27T05:22:24.000Z,97764.89
2018-12-27T05:24:55.455Z,97767.80
2018-12-27T05:27:29.137Z,97770.88
2018-12-27T05:30:00.517Z,97778.58
2018-12-27T05:32:31.989Z,97778.15
2018-12-27T05:35:03.527Z,97779.70
2018-12-27T05:37:35.140Z,97789.94
2018-12-27T05:40:07.067Z,97789.13
2018-12-27T05:42:38.616Z,97792.05
2018-12-27T05:45:10.049Z,97798.47
2018-12-27T05:47:41.489Z,97797.09
2018-12-27T05:50:12.899Z,97808.33
2018-12-27T05:52:44.369Z,97816.02
2018-12-27T05:55:15.857Z,97810.87
2018-12-27T05:57:47.413Z,97818.99
2018-12-27T06:00:18.728Z,97818.50
2018-12-27T06:02:50.193Z,97820.89
2018-12-27T06:05:21.540Z,97828.47
2018-12-27T06:07:53.183Z,97828.31
2018-12-27T06:10:24.708Z,97825.72
2018-12-27T06:12:56.368Z,97826.41
2018-12-27T06:15:28.146Z,97832.25
2018-12-27T06:17:59.640Z,97841.20
2018-12-27T06:20:31.097Z,97845.09
2018-12-27T06:23:02.612Z,97843.49
2018-12-27T06:25:34.199Z,97846.36
2018-12-27T06:28:05.673Z,97846.36
2018-12-27T06:30:37.130Z,97846.77
2018-12-27T06:33:08.690Z,97840.15
2018-12-27T06:35:40.191Z,97848.05
2018-12-27T06:38:11.570Z,97857.28
2018-12-27T06:40:43.097Z,97861.83
2018-12-27T06:43:14.663Z,97855.47
2018-12-27T06:45:46.129Z,97863.74
2018-12-27T06:48:17.570Z,97865.86
2018-12-27T06:50:48.996Z,97871.55
2018-12-27T06:53:20.718Z,97869.95
2018-12-27T06:55:52.159Z,97874.89
2018-12-27T06:58:23.669Z,97873.66
2018-12-27T07:00:55.266Z,97881.14
2018-12-27T07:03:26.697Z,97882.37
2018-12-27T07:05:58.211Z,97880.41
2018-12-27T07:08:29.633Z,97881.19
2018-12-27T07:11:01.070Z,97885.88
2018-12-27T07:13:32.531Z,97891.16
2018-12-27T07:16:03.819Z,97890.58
2018-12-27T07:18:35.337Z,97898.32
2018-12-27T07:21:06.962Z,97899.59
2018-12-27T07:23:38.430Z,97897.48
2018-12-27T07:26:09.819Z,97903.20
2018-12-27T07:28:41.188Z,97901.27
2018-12-27T07:31:12.702Z,97908.17
2018-12-27T07:33:44.208Z,97906.98
2018-12-27T07:36:15.791Z,97906.66
2018-12-27T07:38:47.177Z,97914.41
2018-12-27T07:41:18.661Z,97910.38
2018-12-27T07:43:50.246Z,97915.79
2018-12-27T07:46:21.717Z,97919.61
2018-12-27T07:48:53.270Z,97914.71
2018-12-27T07:51:24.855Z,97917.98
2018-12-27T07:53:56.429Z,97922.78
2018-12-27T07:56:28.020Z,97925.33
2018-12-27T07:58:59.487Z,97929.95
2018-12-27T08:01:31.049Z,97931.53
2018-12-27T08:04:02.502Z,97930.92
2018-12-27T08:06:33.947Z,97932.44
2018-12-27T08:09:07.328Z,97938.80
2018-12-27T08:11:38.911Z,97936.13
2018-12-27T08:14:10.456Z,97939.54
2018-12-27T08:16:41.847Z,97936.98
2018-12-27T08:19:13.165Z,97937.34
2018-12-27T08:21:44.768Z,97935.30
2018-12-27T08:24:16.186Z,97930.20
2018-12-27T08:26:47.646Z,97935.45
2018-12-27T08:29:20.110Z,97934.17
2018-12-27T08:31:51.665Z,97935.94
2018-12-27T08:34:23.238Z,97935.45
2018-12-27T08:36:54.768Z,97934.55
2018-12-27T08:39:26.377Z,97934.64
2018-12-27T08:41:57.876Z,97930.27
2018-12-27T08:44:29.445Z,97933.10
2018-12-27T08:47:00.958Z,97935.66
2018-12-27T08:49:32.601Z,97932.69
2018-12-27T08:52:04.061Z,97929.78
2018-12-27T08:54:35.528Z,97937.75
2018-12-27T08:57:06.997Z,97932.31
2018-12-27T08:59:41.917Z,97926.20
2018-12-27T09:02:14.295Z,97930.91
2018-12-27T09:04:45.649Z,97930.28
2018-12-27T09:07:17.111Z,97927.37
2018-12-27T09:09:49.547Z,97927.38
2018-12-27T09:12:21.100Z,97935.03
2018-12-27T09:14:53.052Z,97930.13
2018-12-27T09:17:24.767Z,97939.44
2018-12-27T09:19:56.696Z,97934.98
2018-12-27T09:25:36.725Z,97922.34
2018-12-27T09:28:08.461Z,97917.44
2018-12-27T09:30:40.095Z,97924.67
2018-12-27T09:33:14.364Z,97916.38
2018-12-27T09:35:45.966Z,97917.94
2018-12-27T09:38:17.574Z,97912.17
2018-12-27T09:40:49.260Z,97907.26
2018-12-27T09:43:20.961Z,97906.95
2018-12-27T09:45:52.650Z,97909.85
2018-12-27T09:48:24.288Z,97898.17
2018-12-27T09:50:55.787Z,97908.80
2018-12-27T09:53:30.150Z,97910.84
2018-12-27T09:56:02.091Z,97898.68
2018-12-27T09:58:33.814Z,97896.81
2018-12-27T10:01:05.751Z,97909.10
2018-12-27T10:03:37.468Z,97900.13
2018-12-27T10:06:09.080Z,97898.31
2018-12-27T10:08:41.986Z,97898.98
2018-12-27T10:11:13.577Z,97900.60
2018-12-27T10:13:45.119Z,97894.81
2018-12-27T10:16:16.606Z,97898.41
2018-12-27T10:18:48.182Z,97903.78
2018-12-27T10:21:19.669Z,97904.63
2018-12-27T10:23:51.118Z,97908.80
2018-12-27T10:26:22.757Z,97899.40
2018-12-27T10:28:54.257Z,97899.55
2018-12-27T10:31:25.914Z,97901.28
2018-12-27T10:33:57.386Z,97903.83
2018-12-27T10:36:28.855Z,97898.39
2018-12-27T10:39:06.171Z,97905.69
2018-12-27T10:41:37.692Z,97908.67
2018-12-27T10:44:09.183Z,97901.71
2018-12-27T10:46:40.625Z,97911.25
2018-12-27T10:49:12.149Z,97905.94
2018-12-27T10:51:43.619Z,97905.13
2018-12-27T10:54:15.152Z,97903.98
2018-12-27T10:56:46.768Z,97902.55
2018-12-27T10:59:18.973Z,97896.17
2018-12-27T11:01:50.523Z,97901.80
2018-12-27T11:04:21.925Z,97896.87
2018-12-27T11:06:53.575Z,97890.44
2018-12-27T11:09:24.994Z,97900.86
2018-12-27T11:11:56.495Z,97901.02
2018-12-27T11:14:28.065Z,97899.23
2018-12-27T11:16:59.512Z,97906.88
2018-12-27T11:19:30.854Z,97900.22
2018-12-27T11:22:02.145Z,97901.00
2018-12-27T11:24:33.623Z,97898.67
2018-12-27T11:27:05.170Z,97903.85
2018-12-27T11:29:36.751Z,97895.42
2018-12-27T11:32:08.355Z,97901.17
2018-12-27T11:34:39.667Z,97898.59
2018-12-27T11:37:11.176Z,97901.77
2018-12-27T11:39:42.573Z,97904.50
2018-12-27T11:42:14.142Z,97903.86
2018-12-27T11:44:45.573Z,97907.92
2018-12-27T11:47:17.139Z,97909.97
2018-12-27T11:49:49.003Z,97907.22
2018-12-27T11:52:20.663Z,97899.86
2018-12-27T11:54:52.102Z,97910.27
2018-12-27T11:57:23.507Z,97908.07
2018-12-27T11:59:55.017Z,97915.50
2018-12-27T12:02:31.019Z,97910.89
2018-12-27T12:04:59.994Z,97910.23
2018-12-27T12:07:31.975Z,97904.14
2018-12-27T12:10:03.365Z,97909.63
2018-12-27T12:12:35.934Z,97906.63
2018-12-27T12:15:07.682Z,97900.84
2018-12-27T12:17:40.365Z,97902.02
2018-12-27T12:20:11.802Z,97908.02
2018-12-27T12:22:43.339Z,97907.77
2018-12-27T12:25:14.917Z,97908.16
2018-12-27T12:27:46.514Z,97912.70
2018-12-27T12:30:17.949Z,97913.63
2018-12-27T12:32:49.483Z,97921.00
2018-12-27T12:35:21.066Z,97922.35
2018-12-27T12:37:53.156Z,97918.88
2018-12-27T12:40:24.614Z,97917.73
2018-12-27T12:42:56.377Z,97914.58
2018-12-27T12:45:29.690Z,97922.50
2018-12-27T12:48:01.564Z,97921.55
2018-12-27T12:50:33.032Z,97920.18
2018-12-27T12:53:04.447Z,97923.86
2018-12-27T12:55:35.935Z,97923.28
2018-12-27T12:58:07.608Z,97925.20
2018-12-27T13:00:38.856Z,97920.86
2018-12-27T13:03:10.186Z,97921.36
2018-12-27T13:05:41.748Z,97925.84
2018-12-27T13:08:13.084Z,97932.25
2018-12-27T13:10:44.484Z,97932.99
2018-12-27T13:13:15.775Z,97935.52
2018-12-27T13:15:47.218Z,97933.19
2018-12-27T13:18:18.705Z,97934.11
2018-12-27T13:20:50.187Z,97939.97
2018-12-27T13:23:21.441Z,97938.25
2018-12-27T13:25:52.968Z,97939.53
2018-12-27T13:28:24.513Z,97940.38
2018-12-27T13:30:56.036Z,97940.91
2018-12-27T13:33:27.510Z,97942.42
2018-12-27T13:35:59.097Z,97947.08
2018-12-27T13:38:30.622Z,97948.55
2018-12-27T13:41:02.107Z,97950.20
2018-12-27T13:43:33.508Z,97951.55
2018-12-27T13:46:05.018Z,97946.53
2018-12-27T13:48:36.393Z,97949.59
2018-12-27T13:51:07.763Z,97953.06
2018-12-27T13:53:39.090Z,97953.33
2018-12-27T13:56:10.459Z,97957.39
2018-12-27T13:58:41.783Z,97958.23
2018-12-27T14:01:13.208Z,97959.67
2018-12-27T14:03:44.586Z,97953.52
2018-12-27T14:06:16.176Z,97953.52
2018-12-27T14:08:47.796Z,97953.27
2018-12-27T14:11:19.375Z,97949.44
2018-12-27T14:13:50.985Z,97949.88
2018-12-27T14:16:22.508Z,97949.06
2018-12-27T14:18:53.975Z,97947.78
2018-12-27T14:21:25.651Z,97946.29
2018-12-27T14:23:57.295Z,97942.61
2018-12-27T14:26:28.828Z,97949.63
2018-12-27T14:29:00.103Z,97948.25
2018-12-27T14:31:31.624Z,97949.81
2018-12-27T14:34:02.976Z,97958.64
2018-12-27T14:36:39.773Z,97957.22
2018-12-27T14:39:08.885Z,97957.34
2018-12-27T14:41:40.331Z,97961.24
2018-12-27T14:44:11.903Z,97959.21
2018-12-27T14:46:43.325Z,97959.33
2018-12-27T14:49:14.662Z,97959.27
2018-12-27T14:51:46.165Z,97957.17
2018-12-27T14:54:17.532Z,97959.03
2018-12-27T14:56:48.975Z,97961.67
2018-12-27T14:59:20.392Z,97962.77
2018-12-27T15:01:52.023Z,97964.27
2018-12-27T15:04:23.425Z,97963.11
2018-12-27T15:06:54.903Z,97969.27
2018-12-27T15:09:26.808Z,97968.61
2018-12-27T15:11:58.772Z,97967.82
2018-12-27T15:14:30.175Z,97973.91
2018-12-27T15:17:01.687Z,97970.94
2018-12-27T15:19:33.138Z,97972.69
2018-12-27T15:22:04.584Z,97976.59
2018-12-27T15:24:36.116Z,97983.77
2018-12-27T15:27:07.453Z,97984.33
2018-12-27T15:29:38.925Z,97982.31
2018-12-27T15:32:10.284Z,97986.93
2018-12-27T15:34:41.695Z,97985.59
2018-12-27T15:37:13.118Z,97990.28
2018-12-27T15:39:44.508Z,97991.42
2018-12-27T15:42:15.952Z,97993.12
2018-12-27T15:44:47.433Z,97991.98
2018-12-27T15:47:18.919Z,97991.30
2018-12-27T15:49:50.436Z,97992.52
2018-12-27T15:52:21.843Z,97992.49
2018-12-27T15:54:53.225Z,97997.19
2018-12-27T15:57:24.655Z,98001.25
2018-12-27T15:59:56.199Z,98006.30
2018-12-27T16:02:27.676Z,98005.40
2018-12-27T16:04:59.184Z,98011.35
2018-12-27T16:07:30.760Z,98014.13
2018-12-27T16:10:02.392Z,98015.78
2018-12-27T16:12:33.993Z,98015.46
2018-12-27T16:15:05.545Z,98013.91
2018-12-27T16:17:36.892Z,98020.16
2018-12-27T16:20:08.331Z,98019.13
2018-12-27T16:22:39.767Z,98013.79
2018-12-27T16:25:11.195Z,98023.44
2018-12-27T16:27:42.706Z,98025.15
2018-12-27T16:30:14.104Z,98025.76
2018-12-27T16:32:45.448Z,98025.89
2018-12-27T16:35:17.020Z,98030.81
2018-12-27T16:37:48.473Z,98026.84
2018-12-27T16:40:20.145Z,98035.48
2018-12-27T16:42:51.855Z,98029.52
2018-12-27T16:45:23.326Z,98025.51
2018-12-27T16:47:54.763Z,98036.22
2018-12-27T16:50:26.247Z,98038.47
2018-12-27T16:52:57.765Z,98034.75
2018-12-27T16:55:29.288Z,98030.79
2018-12-27T16:58:00.831Z,98040.54
2018-12-27T17:00:32.518Z,98038.70
2018-12-27T17:03:03.998Z,98040.71
2018-12-27T17:05:35.595Z,98030.19
2018-12-27T17:08:06.976Z,98033.89
2018-12-27T17:10:41.506Z,98029.83
2018-12-27T17:13:12.998Z,98030.02
2018-12-27T17:15:44.586Z,98033.67
2018-12-27T17:18:16.013Z,98036.38
2018-12-27T17:20:47.466Z,98031.58
2018-12-27T17:23:18.921Z,98031.66
2018-12-27T17:25:50.367Z,98035.59
2018-12-27T17:28:21.824Z,98034.31
2018-12-27T17:30:53.254Z,98035.01
2018-12-27T17:33:24.816Z,98029.95
2018-12-27T17:35:56.274Z,98035.67
2018-12-27T17:38:27.836Z,98032.58
2018-12-27T17:40:59.251Z,98033.98
2018-12-27T17:43:30.704Z,98039.58
2018-12-27T17:46:02.159Z,98032.33
2018-12-27T17:48:33.597Z,98036.41
2018-12-27T17:51:05.069Z,98032.70
2018-12-27T17:53:36.527Z,98037.02
2018-12-27T17:56:08.015Z,98036.64
2018-12-27T17:58:39.545Z,98035.26
2018-12-27T18:01:11.062Z,98037.56
2018-12-27T18:03:42.602Z,98035.98
2018-12-27T18:06:14.067Z,98037.01
2018-12-27T18:08:45.505Z,98033.61
2018-12-27T18:11:16.925Z,98031.30
2018-12-27T18:13:48.567Z,98040.38
2018-12-27T18:16:20.278Z,98034.80
2018-12-27T18:18:51.902Z,98031.11
2018-12-27T18:21:23.285Z,98040.52
2018-12-27T18:23:54.735Z,98042.37
2018-12-27T18:26:26.189Z,98031.06
2018-12-27T18:28:57.577Z,98040.32
2018-12-27T18:31:29.142Z,98040.80
2018-12-27T18:34:00.655Z,98038.13
2018-12-27T18:36:33.555Z,98038.78
2018-12-27T18:39:06.065Z,98036.64
2018-12-27T18:41:37.679Z,98037.02
2018-12-27T18:44:09.103Z,98039.09
2018-12-27T18:46:40.536Z,98037.94
2018-12-27T18:49:11.943Z,98028.38
2018-12-27T18:51:43.256Z,98026.03
2018-12-27T18:54:16.905Z,98021.16
2018-12-27T18:56:48.387Z,98030.24
2018-12-27T18:59:19.889Z,98027.31
2018-12-27T19:01:51.253Z,98020.84
2018-12-27T19:04:22.763Z,98023.34
2018-12-27T19:06:54.189Z,98030.78
2018-12-27T19:09:25.678Z,98035.03
2018-12-27T19:12:31.755Z,98033.02
2018-12-27T19:15:09.262Z,98038.11
2018-12-27T19:17:47.186Z,98033.95
2018-12-27T19:20:18.689Z,98034.97
2018-12-27T19:23:21.023Z,98032.21
2018-12-27T19:25:52.427Z,98031.26
2018-12-27T19:28:23.907Z,98035.19
2018-12-27T19:30:55.414Z,98043.64
2018-12-27T19:33:27.033Z,98038.97
2018-12-27T19:35:58.478Z,98043.27
2018-12-27T19:38:31.083Z,98042.79
2018-12-27T19:41:02.636Z,98038.16
2018-12-27T19:43:34.046Z,98045.17
2018-12-27T19:46:05.526Z,98043.84
2018-12-27T19:48:37.116Z,98048.56
2018-12-27T19:51:08.696Z,98052.91
2018-12-27T19:53:40.229Z,98053.02
2018-12-27T19:56:11.600Z,98042.59
2018-12-27T19:58:43.098Z,98054.27
2018-12-27T20:01:14.671Z,98049.82
2018-12-27T20:03:46.099Z,98051.30
2018-12-27T20:06:17.591Z,98048.73
2018-12-27T20:08:49.008Z,98048.16
2018-12-27T20:11:20.446Z,98050.30
2018-12-27T20:13:51.781Z,98047.79
2018-12-27T20:16:24.411Z,98047.05
2018-12-27T20:18:55.866Z,98047.52
2018-12-27T20:21:27.340Z,98045.28
2018-12-27T20:23:58.888Z,98046.20
2018-12-27T20:26:30.454Z,98047.48
2018-12-27T20:29:01.984Z,98050.83
2018-12-27T20:31:33.621Z,98050.83
2018-12-27T20:34:05.044Z,98042.33
2018-12-27T20:36:38.159Z,98044.37
2018-12-27T20:39:09.794Z,98041.83
2018-12-27T20:41:41.306Z,98042.72
2018-12-27T20:44:12.825Z,98044.08
2018-12-27T20:46:44.304Z,98047.57
2018-12-27T20:49:15.739Z,98042.37
2018-12-27T20:51:47.174Z,98035.64
2018-12-27T20:54:18.640Z,98034.66
2018-12-27T20:56:50.168Z,98021.97
2018-12-27T20:59:21.658Z,98015.41
2018-12-27T21:01:53.234Z,98019.70
2018-12-27T21:04:24.668Z,98023.18
2018-12-27T21:06:56.164Z,98016.44
2018-12-27T21:09:27.713Z,98017.20
2018-12-27T21:11:59.190Z,98015.45
2018-12-27T21:14:30.565Z,98016.20
2018-12-27T21:17:01.996Z,98013.64
2018-12-27T21:19:33.386Z,98015.87
2018-12-27T21:22:04.856Z,98009.03
2018-12-27T21:24:36.297Z,98004.83
2018-12-27T21:27:07.868Z,98005.30
2018-12-27T21:29:39.345Z,98000.31
2018-12-27T21:32:10.839Z,98000.50
2018-12-27T21:34:42.218Z,98001.17
2018-12-27T21:37:13.865Z,98001.12
2018-12-27T21:39:45.156Z,98008.56
2018-12-27T21:42:31.708Z,98010.20
2018-12-27T21:45:43.421Z,98007.19
2018-12-27T21:48:13.341Z,98004.21
2018-12-27T21:50:44.707Z,98001.13
2018-12-27T21:53:16.007Z,97997.20
2018-12-27T21:55:47.448Z,97997.46
2018-12-27T21:58:18.743Z,97994.07
2018-12-27T22:00:50.058Z,97993.22
2018-12-27T22:03:21.654Z,97993.22
2018-12-27T22:05:53.056Z,97992.95
2018-12-27T22:08:28.436Z,97987.58
2018-12-27T22:10:57.698Z,97985.51
2018-12-27T22:13:31.524Z,97976.65
2018-12-27T22:16:02.937Z,97977.34
2018-12-27T22:18:34.516Z,97975.13
2018-12-27T22:21:06.106Z,97965.41
2018-12-27T22:23:37.589Z,97964.29
2018-12-27T22:26:09.344Z,97962.50
2018-12-27T22:28:40.814Z,97959.03
2018-12-27T22:31:12.284Z,97955.59
2018-12-27T22:33:43.552Z,97957.34
2018-12-27T22:36:14.910Z,97952.19
2018-12-27T22:38:46.385Z,97954.69
2018-12-27T22:41:17.964Z,97955.12
2018-12-27T22:43:49.353Z,97950.22
2018-12-27T22:46:20.889Z,97954.00
2018-12-27T22:48:52.296Z,97954.86
2018-12-27T22:51:23.830Z,97953.67
2018-12-27T22:53:55.402Z,97954.30
2018-12-27T22:56:33.268Z,97953.28
2018-12-27T22:59:16.304Z,97949.47
2018-12-27T23:05:42.018Z,97944.42
2018-12-27T23:08:30.323Z,97953.20
2018-12-27T23:14:19.635Z,97945.83
2018-12-27T23:16:52.605Z,97943.72
2018-12-27T23:19:24.008Z,97942.48
2018-12-27T23:21:55.519Z,97944.52
2018-12-27T23:24:40.657Z,97940.47
2018-12-27T23:27:27.664Z,97942.78
2018-12-27T23:31:01.944Z,97939.67
2018-12-27T23:34:10.023Z,97935.63
2018-12-27T23:37:29.634Z,97930.86
2018-12-27T23:40:01.236Z,97922.42
2018-12-27T23:42:32.698Z,97921.77
2018-12-27T23:45:05.809Z,97922.04
2018-12-27T23:48:12.026Z,97912.33
2018-12-27T23:50:43.579Z,97920.25
2018-12-27T23:53:25.466Z,97917.19
2018-12-27T23:55:56.886Z,97920.16
2018-12-27T23:58:28.366Z,97920.68
